createdAt,value
2022-08-03T00:00:32.915Z,96.5
2022-08-03T00:02:11.627Z,97
2022-08-03T00:03:50.379Z,97
2022-08-03T00:05:29.125Z,97
2022-08-03T00:07:07.854Z,97.5
2022-08-03T00:08:15.157Z,97.5
2022-08-03T00:09:22.440Z,97.5
2022-08-03T00:11:01.184Z,97.5
2022-08-03T00:12:39.941Z,98
2022-08-03T00:14:18.671Z,98
2022-08-03T00:15:57.417Z,98
2022-08-03T00:17:36.165Z,98
2022-08-03T00:19:14.904Z,98
2022-08-03T00:20:53.651Z,98
2022-08-03T00:22:32.402Z,98.5
2022-08-03T00:24:11.137Z,98
2022-08-03T00:25:18.434Z,98
2022-08-03T00:26:25.726Z,98
2022-08-03T00:28:04.483Z,98
2022-08-03T00:29:43.219Z,98
2022-08-03T00:31:21.970Z,98
2022-08-03T00:33:00.713Z,98.5
2022-08-03T00:34:39.473Z,98.5
2022-08-03T00:36:18.212Z,98.5
2022-08-03T00:37:56.941Z,99
2022-08-03T00:39:35.689Z,99
2022-08-03T00:41:14.438Z,99
2022-08-03T00:42:21.733Z,98.5
2022-08-03T00:43:29.032Z,98.5
2022-08-03T00:45:07.781Z,98
2022-08-03T00:46:46.531Z,98
2022-08-03T00:48:25.287Z,98
2022-08-03T00:50:04.029Z,98
2022-08-03T00:51:42.780Z,98
2022-08-03T00:53:21.532Z,98
2022-08-03T00:55:00.271Z,97.5
2022-08-03T00:56:39.026Z,97.5
2022-08-03T00:58:17.773Z,97.5
2022-08-03T00:59:25.072Z,97.5
2022-08-03T01:00:32.356Z,97.5
2022-08-03T01:02:11.095Z,97.5
2022-08-03T01:03:49.832Z,97.5
2022-08-03T01:05:28.578Z,97.5
2022-08-03T01:07:07.313Z,98
2022-08-03T01:08:46.058Z,97.5
2022-08-03T01:10:24.799Z,97.5
2022-08-03T01:12:03.537Z,97.5
2022-08-03T01:13:42.285Z,97.5
2022-08-03T01:15:21.020Z,98
2022-08-03T01:16:28.332Z,98
2022-08-03T01:17:35.630Z,98
2022-08-03T01:19:14.362Z,98
2022-08-03T01:20:53.102Z,98
2022-08-03T01:22:31.847Z,98
2022-08-03T01:24:10.583Z,98
2022-08-03T01:25:49.326Z,98
2022-08-03T01:27:28.069Z,98.5
2022-08-03T01:29:06.806Z,98.5
2022-08-03T01:30:45.538Z,98.5
2022-08-03T01:32:24.291Z,98.5
2022-08-03T01:33:31.575Z,98.5
2022-08-03T01:34:38.863Z,98.5
2022-08-03T01:36:17.647Z,98.5
2022-08-03T01:37:56.356Z,99
2022-08-03T01:39:35.097Z,99
2022-08-03T01:41:13.848Z,99
2022-08-03T01:42:52.574Z,99
2022-08-03T01:44:31.324Z,99
2022-08-03T01:46:10.064Z,99
2022-08-03T01:47:48.801Z,99
2022-08-03T01:49:27.533Z,99
2022-08-03T01:50:34.837Z,99.5
2022-08-03T01:51:42.116Z,99
2022-08-03T01:53:20.879Z,99
2022-08-03T01:54:59.613Z,99
2022-08-03T01:56:38.352Z,99
2022-08-03T01:58:17.090Z,99
2022-08-03T01:59:55.824Z,99
2022-08-03T02:01:34.566Z,99
2022-08-03T02:03:13.319Z,99
2022-08-03T02:04:52.036Z,99
2022-08-03T02:06:30.762Z,99
2022-08-03T02:07:38.048Z,99.5
2022-08-03T02:08:45.337Z,99.5
2022-08-03T02:10:24.071Z,99.5
2022-08-03T02:12:02.811Z,99.5
2022-08-03T02:13:41.539Z,99.5
2022-08-03T02:15:20.270Z,99.5
2022-08-03T02:16:59.019Z,99.5
2022-08-03T02:18:37.752Z,99.5
2022-08-03T02:20:16.485Z,99.5
2022-08-03T02:21:55.225Z,99.5
2022-08-03T02:23:33.967Z,99.5
2022-08-03T02:24:41.258Z,99.5
2022-08-03T02:25:48.527Z,99.5
2022-08-03T02:27:27.275Z,99.5
2022-08-03T02:29:06.006Z,99.5
2022-08-03T02:30:44.742Z,99.5
2022-08-03T02:32:23.474Z,99.5
2022-08-03T02:34:02.211Z,99.5
2022-08-03T02:35:40.942Z,99.5
2022-08-03T02:37:19.682Z,99.5
2022-08-03T02:38:58.412Z,99.5
2022-08-03T02:40:37.150Z,99.5
2022-08-03T02:41:44.445Z,99.5
2022-08-03T02:42:51.727Z,99.5
2022-08-03T02:44:30.466Z,99.5
2022-08-03T02:46:09.196Z,99.5
2022-08-03T02:47:47.932Z,99.5
2022-08-03T02:49:26.674Z,99.5
2022-08-03T02:51:05.415Z,99.5
2022-08-03T02:52:44.159Z,99.5
2022-08-03T02:54:22.898Z,99.5
2022-08-03T02:56:01.636Z,99.5
2022-08-03T02:57:40.375Z,99.5
2022-08-03T02:58:47.669Z,99.5
2022-08-03T02:59:54.960Z,99.5
2022-08-03T03:01:33.690Z,99.5
2022-08-03T03:03:12.435Z,99.5
2022-08-03T03:04:51.223Z,99.5
2022-08-03T03:06:29.918Z,99.5
2022-08-03T03:08:08.661Z,99.5
2022-08-03T03:09:47.386Z,99.5
2022-08-03T03:11:26.135Z,99.5
2022-08-03T03:13:04.867Z,99.5
2022-08-03T03:14:43.605Z,99.5
2022-08-03T03:15:50.896Z,99.5
2022-08-03T03:16:58.192Z,99.5
2022-08-03T03:18:36.925Z,99.5
2022-08-03T03:20:15.656Z,99.5
2022-08-03T03:21:54.391Z,99.5
2022-08-03T03:23:33.131Z,99.5
2022-08-03T03:25:11.895Z,99.5
2022-08-03T03:26:50.618Z,99.5
2022-08-03T03:28:29.347Z,99.5
2022-08-03T03:30:08.081Z,99.5
2022-08-03T03:31:46.827Z,99.5
2022-08-03T03:32:54.111Z,99.5
2022-08-03T03:34:01.395Z,99.5
2022-08-03T03:35:40.143Z,99.5
2022-08-03T03:37:18.870Z,99.5
2022-08-03T03:38:57.618Z,99.5
2022-08-03T03:40:36.347Z,99.5
2022-08-03T03:42:15.091Z,99.5
2022-08-03T03:43:53.793Z,99.5
2022-08-03T03:45:32.500Z,99.5
2022-08-03T03:47:11.221Z,99.5
2022-08-03T03:48:49.938Z,99.5
2022-08-03T03:49:57.224Z,99.5
2022-08-03T03:51:04.481Z,99.5
2022-08-03T03:52:43.229Z,99.5
2022-08-03T03:54:21.983Z,99.5
2022-08-03T03:56:00.739Z,99.5
2022-08-03T03:57:39.492Z,99.5
2022-08-03T03:59:18.257Z,99.5
2022-08-03T04:00:56.996Z,99.5
2022-08-03T04:02:35.734Z,99.5
2022-08-03T04:04:14.470Z,99.5
2022-08-03T04:05:53.235Z,99.5
2022-08-03T04:07:00.475Z,99.5
2022-08-03T04:08:07.764Z,99.5
2022-08-03T04:09:46.477Z,99.5
2022-08-03T04:11:25.219Z,99.5
2022-08-03T04:13:03.972Z,99.5
2022-08-03T04:14:42.717Z,99.5
2022-08-03T04:16:21.451Z,99.5
2022-08-03T04:18:00.187Z,99.5
2022-08-03T04:19:38.937Z,99.5
2022-08-03T04:21:17.667Z,99.5
2022-08-03T04:22:56.418Z,99.5
2022-08-03T04:24:03.671Z,99.5
2022-08-03T04:25:10.935Z,99.5
2022-08-03T04:26:49.682Z,99.5
2022-08-03T04:28:28.418Z,99.5
2022-08-03T04:30:07.173Z,99.5
2022-08-03T04:31:45.924Z,99
2022-08-03T04:33:24.683Z,99
2022-08-03T04:35:03.424Z,98.5
2022-08-03T04:36:42.196Z,98
2022-08-03T04:38:20.940Z,98
2022-08-03T04:39:59.686Z,97.5
2022-08-03T04:41:06.939Z,97
2022-08-03T04:42:14.195Z,97
2022-08-03T04:43:52.950Z,97
2022-08-03T04:45:31.662Z,97
2022-08-03T04:47:10.392Z,97
2022-08-03T04:48:49.107Z,97
2022-08-03T04:50:27.832Z,97
2022-08-03T04:52:06.549Z,97.5
2022-08-03T04:53:45.283Z,97.5
2022-08-03T04:55:23.998Z,97.5
2022-08-03T04:57:02.726Z,97.5
2022-08-03T04:58:09.996Z,98
2022-08-03T04:59:17.285Z,97.5
2022-08-03T05:00:55.989Z,97.5
2022-08-03T05:02:34.708Z,97.5
2022-08-03T05:04:13.428Z,97
2022-08-03T05:05:52.136Z,97
2022-08-03T05:07:30.861Z,97
2022-08-03T05:09:09.572Z,96.5
2022-08-03T05:10:48.285Z,96.5
2022-08-03T05:12:26.994Z,96.5
2022-08-03T05:14:05.715Z,96.5
2022-08-03T05:15:12.967Z,96
2022-08-03T05:16:20.231Z,95.5
2022-08-03T05:17:58.957Z,96
2022-08-03T05:19:37.704Z,95.5
2022-08-03T05:21:16.425Z,95
2022-08-03T05:22:55.129Z,95
2022-08-03T05:24:33.851Z,95
2022-08-03T05:26:12.584Z,94.5
2022-08-03T05:27:51.288Z,94.5
2022-08-03T05:29:30.017Z,94
2022-08-03T05:31:08.738Z,93.5
2022-08-03T05:32:16.008Z,93.5
2022-08-03T05:33:23.284Z,93.5
2022-08-03T05:35:01.981Z,93
2022-08-03T05:36:40.702Z,93.5
2022-08-03T05:38:19.413Z,93
2022-08-03T05:39:58.142Z,92.5
2022-08-03T05:41:36.859Z,91.5
2022-08-03T05:43:15.570Z,91.5
2022-08-03T05:44:54.276Z,90.5
2022-08-03T05:46:32.987Z,90.5
2022-08-03T05:48:11.696Z,90.5
2022-08-03T05:49:18.966Z,90
2022-08-03T05:50:26.230Z,90
2022-08-03T05:52:04.967Z,90
2022-08-03T05:53:43.662Z,89
2022-08-03T05:55:22.376Z,88.5
2022-08-03T05:57:01.079Z,88
2022-08-03T05:58:39.792Z,88.5
2022-08-03T06:00:18.504Z,87
2022-08-03T06:01:57.219Z,87
2022-08-03T06:03:35.928Z,88
2022-08-03T06:05:14.618Z,86.5
2022-08-03T06:06:21.879Z,86.5
2022-08-03T06:07:29.127Z,86
2022-08-03T06:09:07.846Z,86.5
2022-08-03T06:10:46.560Z,87
2022-08-03T06:12:25.237Z,86.5
2022-08-03T06:14:03.943Z,85.5
2022-08-03T06:15:42.644Z,86
2022-08-03T06:17:21.357Z,86
2022-08-03T06:19:00.060Z,85
2022-08-03T06:20:38.759Z,85
2022-08-03T06:22:17.472Z,84
2022-08-03T06:23:24.752Z,83.5
2022-08-03T06:24:31.988Z,83
2022-08-03T06:26:10.701Z,83
2022-08-03T06:27:49.407Z,83
2022-08-03T06:29:28.139Z,84
2022-08-03T06:31:06.833Z,82
2022-08-03T06:32:45.551Z,81
2022-08-03T06:34:24.267Z,81
2022-08-03T06:36:02.966Z,80.5
2022-08-03T06:37:41.683Z,79
2022-08-03T06:39:20.387Z,79.5
2022-08-03T06:40:27.657Z,77.5
2022-08-03T06:41:34.917Z,78.5
2022-08-03T06:43:13.632Z,78
2022-08-03T06:44:52.343Z,78.5
2022-08-03T06:46:31.056Z,78
2022-08-03T06:48:09.767Z,78
2022-08-03T06:49:48.500Z,76.5
2022-08-03T06:51:27.200Z,77.5
2022-08-03T06:53:05.928Z,78
2022-08-03T06:54:44.662Z,77
2022-08-03T06:56:23.359Z,77
2022-08-03T06:57:30.612Z,78
2022-08-03T06:58:37.866Z,77
2022-08-03T07:00:16.570Z,77
2022-08-03T07:01:55.287Z,77.5
2022-08-03T07:03:33.984Z,75.5
2022-08-03T07:05:12.695Z,74
2022-08-03T07:06:51.408Z,73.5
2022-08-03T07:08:30.116Z,73.5
2022-08-03T07:10:08.829Z,75
2022-08-03T07:11:47.526Z,74
2022-08-03T07:13:26.245Z,73.5
2022-08-03T07:14:33.508Z,73
2022-08-03T07:15:40.760Z,74.5
2022-08-03T07:17:19.481Z,73.5
2022-08-03T07:18:58.196Z,72.5
2022-08-03T07:20:36.909Z,72
2022-08-03T07:22:15.607Z,72
2022-08-03T07:23:54.371Z,70.5
2022-08-03T07:25:33.128Z,68
2022-08-03T07:27:11.794Z,67
2022-08-03T07:28:50.509Z,66
2022-08-03T07:30:29.209Z,67.5
2022-08-03T07:31:36.473Z,68.5
2022-08-03T07:32:43.718Z,68.5
2022-08-03T07:34:22.421Z,66.5
2022-08-03T07:36:01.135Z,68.5
2022-08-03T07:37:39.842Z,69.5
2022-08-03T07:39:18.541Z,68.5
2022-08-03T07:40:57.247Z,70
2022-08-03T07:42:35.965Z,67
2022-08-03T07:44:14.732Z,66.5
2022-08-03T07:45:53.430Z,64
2022-08-03T07:47:32.125Z,59
2022-08-03T07:48:39.374Z,57.5
2022-08-03T07:49:46.635Z,56
2022-08-03T07:51:25.356Z,57.5
2022-08-03T07:53:04.111Z,55.5
2022-08-03T07:54:42.823Z,52
2022-08-03T07:56:21.562Z,54.5
2022-08-03T07:58:00.287Z,55.5
2022-08-03T07:59:39.031Z,53
2022-08-03T08:01:17.751Z,48
2022-08-03T08:02:56.487Z,49
2022-08-03T08:04:35.223Z,51.5
2022-08-03T08:05:42.481Z,51
2022-08-03T08:06:49.761Z,51
2022-08-03T08:08:28.489Z,51
2022-08-03T08:10:07.225Z,52
2022-08-03T08:11:45.971Z,51.5
2022-08-03T08:13:24.721Z,49
2022-08-03T08:15:03.467Z,49
2022-08-03T08:16:42.217Z,49
2022-08-03T08:18:20.969Z,45.5
2022-08-03T08:19:59.680Z,47
2022-08-03T08:21:38.418Z,49
2022-08-03T08:22:45.691Z,45
2022-08-03T08:23:52.952Z,46
2022-08-03T08:25:31.695Z,46
2022-08-03T08:27:10.443Z,48
2022-08-03T08:28:49.197Z,45.5
2022-08-03T08:30:27.929Z,46
2022-08-03T08:32:06.660Z,43
2022-08-03T08:33:45.408Z,46
2022-08-03T08:35:24.144Z,44.5
2022-08-03T08:37:02.895Z,44
2022-08-03T08:38:41.634Z,44
2022-08-03T08:39:48.904Z,44.5
2022-08-03T08:40:56.168Z,43
2022-08-03T08:42:34.933Z,44.5
2022-08-03T08:44:13.656Z,44
2022-08-03T08:45:52.423Z,46
2022-08-03T08:47:31.164Z,43.5
2022-08-03T08:49:09.914Z,44.5
2022-08-03T08:50:48.666Z,44.5
2022-08-03T08:52:27.426Z,45.5
2022-08-03T08:54:06.158Z,48
2022-08-03T08:55:44.903Z,45.5
2022-08-03T08:56:52.180Z,49.5
2022-08-03T08:57:59.426Z,49.5
2022-08-03T08:59:38.177Z,47
2022-08-03T09:01:16.924Z,47
2022-08-03T09:02:55.689Z,47
2022-08-03T09:04:34.414Z,49
2022-08-03T09:06:13.151Z,49
2022-08-03T09:07:51.918Z,50
2022-08-03T09:09:30.628Z,49.5
2022-08-03T09:11:09.373Z,48.5
2022-08-03T09:12:48.104Z,47.5
2022-08-03T09:13:55.363Z,49
2022-08-03T09:15:02.636Z,47
2022-08-03T09:16:41.365Z,48
2022-08-03T09:18:20.093Z,52
2022-08-03T09:19:58.830Z,48.5
2022-08-03T09:21:37.585Z,48
2022-08-03T09:23:16.312Z,48.5
2022-08-03T09:24:55.056Z,47.5
2022-08-03T09:26:33.786Z,46
2022-08-03T09:28:12.521Z,45.5
2022-08-03T09:29:51.273Z,46.5
2022-08-03T09:30:58.513Z,46
2022-08-03T09:32:05.776Z,45
2022-08-03T09:33:44.512Z,49
2022-08-03T09:35:23.275Z,45
2022-08-03T09:37:01.982Z,45.5
2022-08-03T09:38:40.720Z,45.5
2022-08-03T09:40:19.480Z,47
2022-08-03T09:41:58.195Z,48
2022-08-03T09:43:36.947Z,49.5
2022-08-03T09:45:15.675Z,50
2022-08-03T09:46:54.418Z,50.5
2022-08-03T09:48:01.696Z,50
2022-08-03T09:49:08.948Z,50.5
2022-08-03T09:50:47.686Z,50
2022-08-03T09:52:26.424Z,52
2022-08-03T09:54:05.159Z,51
2022-08-03T09:55:43.916Z,49
2022-08-03T09:57:22.675Z,54
2022-08-03T09:59:01.402Z,48.5
2022-08-03T10:00:40.159Z,49.5
2022-08-03T10:02:18.893Z,49.5
2022-08-03T10:03:57.638Z,49
2022-08-03T10:05:04.904Z,49.5
2022-08-03T10:06:12.222Z,50.5
2022-08-03T10:07:50.921Z,51.5
2022-08-03T10:09:29.660Z,48.5
2022-08-03T10:11:08.405Z,50.5
2022-08-03T10:12:47.147Z,52
2022-08-03T10:14:25.890Z,48.5
2022-08-03T10:16:04.634Z,50.5
2022-08-03T10:17:43.373Z,49.5
2022-08-03T10:19:22.115Z,52
2022-08-03T10:21:00.858Z,51
2022-08-03T10:22:08.123Z,50
2022-08-03T10:23:15.384Z,49
2022-08-03T10:24:54.125Z,52
2022-08-03T10:26:32.875Z,48
2022-08-03T10:28:11.611Z,53
2022-08-03T10:29:50.354Z,50
2022-08-03T10:31:29.108Z,50
2022-08-03T10:33:07.844Z,47
2022-08-03T10:34:46.599Z,48.5
2022-08-03T10:36:25.333Z,47
2022-08-03T10:38:04.078Z,45
2022-08-03T10:39:11.348Z,45.5
2022-08-03T10:40:18.608Z,44
2022-08-03T10:41:57.352Z,46
2022-08-03T10:43:36.095Z,45
2022-08-03T10:45:14.842Z,42
2022-08-03T10:46:53.592Z,46.5
2022-08-03T10:48:32.351Z,42.5
2022-08-03T10:50:11.074Z,43.5
2022-08-03T10:51:49.814Z,44
2022-08-03T10:53:28.558Z,45
2022-08-03T10:55:07.313Z,44.5
2022-08-03T10:56:14.598Z,44
2022-08-03T10:57:21.835Z,43
2022-08-03T10:59:00.527Z,46.5
2022-08-03T11:00:39.234Z,48.5
2022-08-03T11:02:17.951Z,52.5
2022-08-03T11:03:56.686Z,50
2022-08-03T11:05:35.442Z,46
2022-08-03T11:07:14.200Z,43.5
2022-08-03T11:08:52.934Z,44
2022-08-03T11:10:31.671Z,44.5
2022-08-03T11:12:10.437Z,43
2022-08-03T11:13:17.686Z,45
2022-08-03T11:14:24.945Z,42
2022-08-03T11:16:03.698Z,45.5
2022-08-03T11:17:42.445Z,43
2022-08-03T11:19:21.189Z,42
2022-08-03T11:20:59.933Z,40.5
2022-08-03T11:22:38.683Z,40.5
2022-08-03T11:24:17.455Z,41
2022-08-03T11:25:56.186Z,41
2022-08-03T11:27:34.948Z,44
2022-08-03T11:29:13.671Z,40.5
2022-08-03T11:30:20.942Z,43.5
2022-08-03T11:31:28.219Z,42
2022-08-03T11:33:06.952Z,44
2022-08-03T11:34:45.688Z,46
2022-08-03T11:36:24.430Z,43
2022-08-03T11:38:03.184Z,43
2022-08-03T11:39:41.919Z,38
2022-08-03T11:41:20.691Z,39.5
2022-08-03T11:42:59.415Z,39
2022-08-03T11:44:38.153Z,40
2022-08-03T11:46:16.903Z,41.5
2022-08-03T11:47:24.161Z,43
2022-08-03T11:48:31.426Z,43.5
2022-08-03T11:50:10.176Z,41
2022-08-03T11:51:48.913Z,41.5
2022-08-03T11:53:27.659Z,39
2022-08-03T11:55:06.402Z,39
2022-08-03T11:56:45.130Z,41
2022-08-03T11:58:23.889Z,39
2022-08-03T12:00:02.630Z,40
2022-08-03T12:01:41.383Z,41.5
2022-08-03T12:03:20.134Z,38.5
2022-08-03T12:04:27.379Z,39.5
2022-08-03T12:05:34.648Z,40
2022-08-03T12:07:13.403Z,37.5
2022-08-03T12:08:52.151Z,34
2022-08-03T12:10:30.894Z,40
2022-08-03T12:12:09.637Z,37.5
2022-08-03T12:13:48.385Z,37.5
2022-08-03T12:15:27.123Z,37
2022-08-03T12:17:05.878Z,36.5
2022-08-03T12:18:44.612Z,37.5
2022-08-03T12:20:23.361Z,37.5
2022-08-03T12:21:30.628Z,37.5
2022-08-03T12:22:37.900Z,40
2022-08-03T12:24:16.658Z,39
2022-08-03T12:25:55.378Z,38.5
2022-08-03T12:27:34.125Z,40
2022-08-03T12:29:12.880Z,35
2022-08-03T12:30:51.609Z,34
2022-08-03T12:32:30.350Z,35
2022-08-03T12:34:09.106Z,37
2022-08-03T12:35:47.853Z,34
2022-08-03T12:37:26.596Z,35
